Time;durP1;ratioP1;P1;durP2;ratioP2;P2;SDS_P1;SDS_P2;PMS_P1;PMS_P2;Temp;Humidity;BMP_temperature;BMP_pressure;BME280_temperature;BME280_humidity;BME280_pressure;Samples;Min_cycle;Max_cycle;Signal;HPM_P1;HPM_P2
2021/06/04 00:00:00;;;;;;;5.70;3.90;;;;;;;;;;5002603;28;20292;-60
2021/06/04 00:02:25;;;;;;;7.57;3.70;;;;;;;;;;5000847;28;20400;-59
2021/06/04 00:04:51;;;;;;;4.53;3.72;;;;;;;;;;5003380;28;20033;-60
2021/06/04 00:07:16;;;;;;;7.75;3.90;;;;;;;;;;5008017;28;20446;-60
2021/06/04 00:09:42;;;;;;;5.78;3.65;;;;;;;;;;4999465;28;20022;-60
2021/06/04 00:12:09;;;;;;;6.82;3.80;;;;;;;;;;5003025;28;20037;-59
2021/06/04 00:14:39;;;;;;;7.30;4.05;;;;;;;;;;5003197;28;20026;-60
2021/06/04 00:17:25;;;;;;;4.50;3.67;;;;;;;;;;5001474;28;20018;-60
2021/06/04 00:19:51;;;;;;;7.68;4.22;;;;;;;;;;5003190;28;20056;-60
2021/06/04 00:22:22;;;;;;;5.30;3.53;;;;;;;;;;5003214;28;20335;-62
2021/06/04 00:24:49;;;;;;;4.93;3.63;;;;;;;;;;5002117;28;20025;-60
2021/06/04 00:27:15;;;;;;;5.88;3.83;;;;;;;;;;5002358;28;20038;-60
2021/06/04 00:29:42;;;;;;;5.10;3.72;;;;;;;;;;5003531;28;20030;-61
2021/06/04 00:32:08;;;;;;;4.47;3.72;;;;;;;;;;5006606;28;20030;-60
2021/06/04 00:34:34;;;;;;;4.75;3.90;;;;;;;;;;4999703;28;20073;-61
2021/06/04 00:36:59;;;;;;;5.05;4.00;;;;;;;;;;5004551;28;20582;-60
2021/06/04 00:39:28;;;;;;;5.20;3.90;;;;;;;;;;5000868;28;20030;-60
2021/06/04 00:41:57;;;;;;;5.87;4.00;;;;;;;;;;5001482;28;20122;-60
2021/06/04 00:44:24;;;;;;;4.00;3.60;;;;;;;;;;5000855;28;20038;-60
2021/06/04 00:46:50;;;;;;;6.10;4.20;;;;;;;;;;5001310;28;20030;-60
2021/06/04 00:49:17;;;;;;;7.55;4.20;;;;;;;;;;5007820;28;20109;-61
2021/06/04 00:51:51;;;;;;;5.57;3.80;;;;;;;;;;5001154;28;20062;-60
2021/06/04 00:54:18;;;;;;;5.75;3.60;;;;;;;;;;5005662;28;20061;-60
2021/06/04 00:56:45;;;;;;;6.20;4.03;;;;;;;;;;5002234;28;20030;-60
2021/06/04 00:59:12;;;;;;;7.68;3.97;;;;;;;;;;5001305;28;20096;-60
2021/06/04 01:01:38;;;;;;;6.10;3.85;;;;;;;;;;4998537;28;20029;-60
2021/06/04 01:04:11;;;;;;;6.28;3.38;;;;;;;;;;5002439;28;20385;-60
2021/06/04 01:06:49;;;;;;;7.20;3.65;;;;;;;;;;5019419;28;20201;-60
2021/06/04 01:09:36;;;;;;;4.85;3.55;;;;;;;;;;4999069;28;20026;-60
2021/06/04 01:12:39;;;;;;;7.50;3.95;;;;;;;;;;4999197;28;20022;-60
2021/06/04 01:15:15;;;;;;;8.82;4.10;;;;;;;;;;5005783;28;20157;-61
2021/06/04 01:18:06;;;;;;;5.85;3.97;;;;;;;;;;4996935;28;20448;-60
2021/06/04 01:20:54;;;;;;;8.38;4.10;;;;;;;;;;5003914;28;20030;-61
2021/06/04 01:23:57;;;;;;;7.07;3.50;;;;;;;;;;5006780;28;20116;-61
2021/06/04 01:26:41;;;;;;;6.25;3.60;;;;;;;;;;5000828;28;20061;-61
2021/06/04 01:29:36;;;;;;;6.13;3.50;;;;;;;;;;5000065;28;20042;-60
2021/06/04 01:32:27;;;;;;;6.70;4.15;;;;;;;;;;5002722;28;20438;-61
2021/06/04 01:35:00;;;;;;;5.78;3.65;;;;;;;;;;4999140;28;20085;-60
2021/06/04 01:37:28;;;;;;;4.88;3.45;;;;;;;;;;5002157;28;20480;-61
2021/06/04 01:40:01;;;;;;;7.13;4.03;;;;;;;;;;5007121;28;20029;-61
2021/06/04 01:42:35;;;;;;;4.40;3.97;;;;;;;;;;4999421;28;20472;-61
2021/06/04 01:45:10;;;;;;;7.47;4.18;;;;;;;;;;4999364;28;20055;-61
2021/06/04 01:47:45;;;;;;;7.40;4.07;;;;;;;;;;5001547;28;20049;-60
2021/06/04 01:50:25;;;;;;;5.57;3.85;;;;;;;;;;5001355;28;20459;-60
2021/06/04 01:52:51;;;;;;;;;;;;;;;;;;4999271;28;20101;-60
2021/06/04 01:55:24;;;;;;;6.13;3.97;;;;;;;;;;5001871;28;19917;-61
2021/06/04 01:58:12;;;;;;;5.68;3.78;;;;;;;;;;5001213;28;20156;-59
2021/06/04 02:00:53;;;;;;;8.80;3.92;;;;;;;;;;4997617;28;20026;-60
2021/06/04 02:03:23;;;;;;;5.13;3.80;;;;;;;;;;5000641;28;20032;-60
2021/06/04 02:05:50;;;;;;;6.72;4.70;;;;;;;;;;4998398;28;20438;-60
2021/06/04 02:08:25;;;;;;;10.10;4.43;;;;;;;;;;4999787;28;20034;-60
2021/06/04 02:10:51;;;;;;;6.50;4.15;;;;;;;;;;5001906;28;20515;-60
2021/06/04 02:13:18;;;;;;;5.85;3.80;;;;;;;;;;5001234;28;20030;-60
2021/06/04 02:15:48;;;;;;;10.43;4.97;;;;;;;;;;5005868;28;20522;-59
2021/06/04 02:18:24;;;;;;;10.32;4.45;;;;;;;;;;4999259;28;20072;-62
2021/06/04 02:20:59;;;;;;;6.63;4.40;;;;;;;;;;5000984;28;20531;-59
2021/06/04 02:23:44;;;;;;;7.75;4.10;;;;;;;;;;5002362;28;20045;-62
2021/06/04 02:26:20;;;;;;;7.60;4.20;;;;;;;;;;5003271;28;20646;-61
2021/06/04 02:28:48;;;;;;;7.28;3.90;;;;;;;;;;4999682;28;20060;-61
2021/06/04 02:31:22;;;;;;;6.10;3.70;;;;;;;;;;5004132;28;20029;-61
2021/06/04 02:34:12;;;;;;;9.85;4.90;;;;;;;;;;5001293;28;20031;-61
2021/06/04 02:36:50;;;;;;;8.13;4.50;;;;;;;;;;5005044;28;20046;-61
2021/06/04 02:39:32;;;;;;;6.97;3.88;;;;;;;;;;4999818;28;20029;-61
2021/06/04 02:42:02;;;;;;;8.80;4.57;;;;;;;;;;4992265;28;20560;-61
2021/06/04 02:44:39;;;;;;;6.18;4.45;;;;;;;;;;5000350;28;20022;-61
2021/06/04 02:47:11;;;;;;;5.82;4.72;;;;;;;;;;4999388;28;20401;-61
2021/06/04 02:49:38;;;;;;;8.48;4.57;;;;;;;;;;4999953;28;20104;-60
2021/06/04 02:52:25;;;;;;;9.30;4.82;;;;;;;;;;4998477;28;20026;-61
2021/06/04 02:54:50;;;;;;;7.88;4.80;;;;;;;;;;5000702;28;20113;-61
2021/06/04 02:57:19;;;;;;;6.55;4.18;;;;;;;;;;5001306;28;20112;-61
2021/06/04 02:59:47;;;;;;;6.93;4.70;;;;;;;;;;4996033;28;20030;-61
2021/06/04 03:02:21;;;;;;;10.45;4.53;;;;;;;;;;5005062;28;20030;-61
2021/06/04 03:04:51;;;;;;;9.10;4.47;;;;;;;;;;5001076;28;20029;-61
2021/06/04 03:07:25;;;;;;;6.00;4.53;;;;;;;;;;4995870;28;20092;-61
2021/06/04 03:09:52;;;;;;;8.88;4.85;;;;;;;;;;5001133;28;20069;-61
2021/06/04 03:12:23;;;;;;;8.90;5.53;;;;;;;;;;4999648;28;20037;-61
2021/06/04 03:14:51;;;;;;;7.00;4.53;;;;;;;;;;4999508;28;20530;-61
2021/06/04 03:17:19;;;;;;;6.90;4.65;;;;;;;;;;5006160;28;20045;-61
2021/06/04 03:19:44;;;;;;;7.93;4.97;;;;;;;;;;4997535;28;20062;-61
2021/06/04 03:22:19;;;;;;;9.32;4.80;;;;;;;;;;5001982;28;20073;-61
2021/06/04 03:24:46;;;;;;;7.93;4.80;;;;;;;;;;5001675;28;20094;-61
2021/06/04 03:27:13;;;;;;;6.45;5.00;;;;;;;;;;5008536;28;20037;-61
2021/06/04 03:29:38;;;;;;;6.53;4.53;;;;;;;;;;5001770;28;20088;-61
2021/06/04 03:32:08;;;;;;;5.93;4.70;;;;;;;;;;4998962;28;20506;-61
2021/06/04 03:34:35;;;;;;;7.35;4.80;;;;;;;;;;5018478;28;20029;-61
2021/06/04 03:37:01;;;;;;;8.18;4.90;;;;;;;;;;5003539;28;20049;-61
2021/06/04 03:39:31;;;;;;;6.22;4.50;;;;;;;;;;5003218;28;20065;-61
2021/06/04 03:41:57;;;;;;;;;;;;;;;;;;5005390;28;20111;-61
2021/06/04 03:44:27;;;;;;;7.57;4.85;;;;;;;;;;5003686;28;19932;-62
2021/06/04 03:46:53;;;;;;;;;;;;;;;;;;5003422;28;20033;-61
2021/06/04 03:49:21;;;;;;;8.70;5.15;;;;;;;;;;4999876;28;19913;-61
2021/06/04 03:51:48;;;;;;;7.90;4.93;;;;;;;;;;5002833;28;20018;-61
2021/06/04 03:54:18;;;;;;;12.02;4.95;;;;;;;;;;5003733;28;20042;-61
2021/06/04 03:56:44;;;;;;;8.05;4.88;;;;;;;;;;5002223;28;20022;-61
2021/06/04 03:59:10;;;;;;;6.13;4.70;;;;;;;;;;4998999;28;20048;-60
2021/06/04 04:02:04;;;;;;;8.50;4.80;;;;;;;;;;5008553;28;20109;-61
2021/06/04 04:04:30;;;;;;;8.07;4.53;;;;;;;;;;5003590;28;20523;-61
2021/06/04 04:06:56;;;;;;;6.70;4.93;;;;;;;;;;5004804;28;20391;-61
2021/06/04 04:09:21;;;;;;;9.07;5.35;;;;;;;;;;5007687;28;20274;-61
2021/06/04 04:11:50;;;;;;;6.43;4.88;;;;;;;;;;5002021;28;20030;-61
2021/06/04 04:14:16;;;;;;;12.32;6.00;;;;;;;;;;5000697;28;20022;-61
2021/06/04 04:16:42;;;;;;;9.30;5.65;;;;;;;;;;4998655;28;20060;-61
2021/06/04 04:19:08;;;;;;;7.25;5.45;;;;;;;;;;5005909;28;20114;-61
2021/06/04 04:21:34;;;;;;;8.52;5.57;;;;;;;;;;4997623;28;20145;-61
2021/06/04 04:24:08;;;;;;;9.60;5.55;;;;;;;;;;5003159;28;20558;-61
2021/06/04 04:26:34;;;;;;;7.15;5.43;;;;;;;;;;5003495;28;20056;-61
2021/06/04 04:29:01;;;;;;;6.97;4.93;;;;;;;;;;5002392;28;20484;-60
2021/06/04 04:31:31;;;;;;;8.82;6.30;;;;;;;;;;4995714;28;20437;-61
2021/06/04 04:33:58;;;;;;;9.40;5.80;;;;;;;;;;5008220;28;20114;-61
2021/06/04 04:36:28;;;;;;;11.35;6.40;;;;;;;;;;5002501;28;20038;-60
2021/06/04 04:38:54;;;;;;;9.73;6.05;;;;;;;;;;5001864;28;20048;-60
2021/06/04 04:41:20;;;;;;;11.63;6.15;;;;;;;;;;5004169;28;20025;-60
2021/06/04 04:43:50;;;;;;;7.93;5.63;;;;;;;;;;5003225;28;20052;-60
2021/06/04 04:46:18;;;;;;;15.25;6.05;;;;;;;;;;5007668;28;20033;-60
2021/06/04 04:48:44;;;;;;;8.68;5.93;;;;;;;;;;4997127;28;20041;-60
2021/06/04 04:51:11;;;;;;;9.98;5.60;;;;;;;;;;5001236;28;20434;-60
2021/06/04 04:53:37;;;;;;;9.18;6.00;;;;;;;;;;5001648;28;20038;-60
2021/06/04 04:56:04;;;;;;;9.55;5.72;;;;;;;;;;4997075;28;20080;-60
2021/06/04 04:58:29;;;;;;;9.10;5.40;;;;;;;;;;5003121;28;20480;-60
2021/06/04 05:00:56;;;;;;;8.88;6.28;;;;;;;;;;4999841;28;20140;-60
2021/06/04 05:03:22;;;;;;;9.10;6.10;;;;;;;;;;5000750;28;20090;-59
2021/06/04 05:05:48;;;;;;;10.15;5.93;;;;;;;;;;4998522;28;20041;-61
2021/06/04 05:08:15;;;;;;;9.05;6.32;;;;;;;;;;5002550;28;20021;-59
2021/06/04 05:10:40;;;;;;;9.68;5.60;;;;;;;;;;5003437;28;20069;-59
2021/06/04 05:13:07;;;;;;;10.18;6.72;;;;;;;;;;5000204;28;20108;-59
2021/06/04 05:15:36;;;;;;;7.82;5.82;;;;;;;;;;5002859;28;20048;-60
2021/06/04 05:18:04;;;;;;;8.65;5.93;;;;;;;;;;5002968;28;20026;-61
2021/06/04 05:20:29;;;;;;;9.52;6.13;;;;;;;;;;4998153;28;20041;-61
2021/06/04 05:22:57;;;;;;;9.00;6.68;;;;;;;;;;5000140;28;20022;-60
2021/06/04 05:25:31;;;;;;;11.20;6.75;;;;;;;;;;5000538;28;20097;-60
2021/06/04 05:27:57;;;;;;;12.93;9.05;;;;;;;;;;5001624;28;20105;-60
2021/06/04 05:30:30;;;;;;;13.13;8.40;;;;;;;;;;4999785;28;20545;-59
2021/06/04 05:32:59;;;;;;;10.93;7.70;;;;;;;;;;5000418;28;20034;-60
2021/06/04 05:35:28;;;;;;;11.95;7.57;;;;;;;;;;5007326;28;20041;-59
2021/06/04 05:37:54;;;;;;;10.73;6.30;;;;;;;;;;5001541;28;20116;-60
2021/06/04 05:40:30;;;;;;;9.30;6.35;;;;;;;;;;4999863;28;20033;-59
2021/06/04 05:42:56;;;;;;;9.48;7.13;;;;;;;;;;4999639;28;20026;-59
2021/06/04 05:45:25;;;;;;;11.40;6.75;;;;;;;;;;5000546;28;20415;-59
2021/06/04 05:47:51;;;;;;;8.88;6.10;;;;;;;;;;4998058;28;20026;-60
2021/06/04 05:50:26;;;;;;;9.30;6.18;;;;;;;;;;5001887;28;20096;-59
2021/06/04 05:52:52;;;;;;;10.07;6.68;;;;;;;;;;5000177;28;20096;-60
2021/06/04 05:55:21;;;;;;;11.07;7.15;;;;;;;;;;4994330;28;20488;-59
2021/06/04 05:57:47;;;;;;;11.02;6.93;;;;;;;;;;5005121;28;20040;-61
2021/06/04 06:00:21;;;;;;;12.23;6.40;;;;;;;;;;4999075;28;20037;-59
2021/06/04 06:02:48;;;;;;;8.23;6.50;;;;;;;;;;4994602;28;20042;-60
2021/06/04 06:05:14;;;;;;;11.95;6.85;;;;;;;;;;5004347;28;20037;-61
2021/06/04 06:07:39;;;;;;;8.32;6.25;;;;;;;;;;5000258;28;20496;-59
2021/06/04 06:10:06;;;;;;;9.93;5.95;;;;;;;;;;4999879;28;20049;-60
2021/06/04 06:12:31;;;;;;;9.73;6.97;;;;;;;;;;5000177;28;20141;-59
2021/06/04 06:14:57;;;;;;;10.98;8.48;;;;;;;;;;5005346;28;20467;-60
2021/06/04 06:17:23;;;;;;;14.50;7.72;;;;;;;;;;5000435;28;20034;-60
2021/06/04 06:19:48;;;;;;;12.95;8.20;;;;;;;;;;5000311;28;20034;-60
2021/06/04 06:22:14;;;;;;;12.32;7.40;;;;;;;;;;5013519;28;20452;-60
2021/06/04 06:24:40;;;;;;;9.15;6.60;;;;;;;;;;5001644;28;20030;-60
2021/06/04 06:27:06;;;;;;;9.25;7.15;;;;;;;;;;5001360;28;20022;-59
2021/06/04 06:29:35;;;;;;;10.13;6.43;;;;;;;;;;5001705;28;20092;-60
2021/06/04 06:32:05;;;;;;;9.98;6.38;;;;;;;;;;5014754;28;20034;-60
2021/06/04 06:34:31;;;;;;;12.00;7.38;;;;;;;;;;5000836;28;20409;-59
2021/06/04 06:36:57;;;;;;;10.23;7.05;;;;;;;;;;5000213;28;20061;-60
2021/06/04 06:39:27;;;;;;;9.77;7.15;;;;;;;;;;4997930;28;20026;-59
2021/06/04 06:41:54;;;;;;;11.32;6.53;;;;;;;;;;4999744;28;20309;-60
2021/06/04 06:44:20;;;;;;;8.52;6.53;;;;;;;;;;4995956;28;20125;-60
2021/06/04 06:46:47;;;;;;;8.63;6.25;;;;;;;;;;4999359;28;20033;-60
2021/06/04 06:49:14;;;;;;;10.25;6.68;;;;;;;;;;5002560;28;20452;-59
2021/06/04 06:51:39;;;;;;;9.02;6.22;;;;;;;;;;4998379;28;20068;-60
2021/06/04 06:54:09;;;;;;;11.45;6.70;;;;;;;;;;5001838;28;20117;-60
2021/06/04 06:56:35;;;;;;;;;;;;;;;;;;5009278;28;20368;-60
2021/06/04 06:59:01;;;;;;;9.80;5.80;;;;;;;;;;5004228;28;19928;-59
2021/06/04 07:01:28;;;;;;;9.55;6.68;;;;;;;;;;5000410;28;20023;-60
2021/06/04 07:03:54;;;;;;;10.75;6.45;;;;;;;;;;5004640;28;20066;-60
2021/06/04 07:06:28;;;;;;;10.52;6.50;;;;;;;;;;5009018;28;20548;-60
2021/06/04 07:08:55;;;;;;;8.10;6.30;;;;;;;;;;4998531;28;20300;-60
2021/06/04 07:11:22;;;;;;;10.43;6.30;;;;;;;;;;5003597;28;20046;-60
2021/06/04 07:13:50;;;;;;;10.13;6.50;;;;;;;;;;5006441;28;20030;-60
2021/06/04 07:16:16;;;;;;;8.73;6.68;;;;;;;;;;5002918;28;20029;-60
2021/06/04 07:18:42;;;;;;;10.75;6.13;;;;;;;;;;5001496;28;20026;-60
2021/06/04 07:21:11;;;;;;;9.43;7.25;;;;;;;;;;5004041;28;20578;-61
2021/06/04 07:23:37;;;;;;;8.35;6.03;;;;;;;;;;5004142;28;20447;-61
2021/06/04 07:26:04;;;;;;;9.48;5.72;;;;;;;;;;5004551;28;20080;-61
2021/06/04 07:28:32;;;;;;;9.18;5.78;;;;;;;;;;5004542;28;20099;-61
2021/06/04 07:31:00;;;;;;;11.93;5.88;;;;;;;;;;5003152;28;20117;-59
2021/06/04 07:33:45;;;;;;;8.82;5.82;;;;;;;;;;5003761;28;20515;-59
2021/06/04 07:36:27;;;;;;;9.73;5.97;;;;;;;;;;5002594;28;20029;-61
2021/06/04 07:38:54;;;;;;;9.85;5.75;;;;;;;;;;5003225;28;20034;-60
2021/06/04 07:41:20;;;;;;;8.27;5.53;;;;;;;;;;5002255;28;20062;-60
2021/06/04 07:43:47;;;;;;;6.63;5.60;;;;;;;;;;5002639;28;20045;-59
2021/06/04 07:46:14;;;;;;;8.75;5.80;;;;;;;;;;5005056;28;20030;-59
2021/06/04 07:48:39;;;;;;;7.40;5.80;;;;;;;;;;5003972;28;20105;-59
2021/06/04 07:51:12;;;;;;;9.43;5.55;;;;;;;;;;5002413;28;20105;-60
2021/06/04 07:53:39;;;;;;;7.53;5.45;;;;;;;;;;5001039;28;20552;-59
2021/06/04 07:56:06;;;;;;;9.93;6.25;;;;;;;;;;5004357;28;20145;-59
2021/06/04 07:58:34;;;;;;;7.20;5.55;;;;;;;;;;5010155;28;20084;-60
2021/06/04 08:01:02;;;;;;;11.35;6.32;;;;;;;;;;4996984;28;20428;-59
2021/06/04 08:03:28;;;;;;;10.95;5.55;;;;;;;;;;5002093;28;20021;-60
2021/06/04 08:05:54;;;;;;;9.68;5.38;;;;;;;;;;5008493;28;20441;-60
2021/06/04 08:08:22;;;;;;;10.75;5.80;;;;;;;;;;5006280;28;20127;-60
2021/06/04 08:10:48;;;;;;;10.00;5.70;;;;;;;;;;5001567;28;20038;-60
2021/06/04 08:13:15;;;;;;;9.07;5.60;;;;;;;;;;5003368;28;20029;-60
2021/06/04 08:15:59;;;;;;;6.95;5.35;;;;;;;;;;5001774;28;20045;-60
2021/06/04 08:18:28;;;;;;;6.85;4.75;;;;;;;;;;5000345;28;20026;-60
2021/06/04 08:20:53;;;;;;;9.48;5.50;;;;;;;;;;5001004;28;20018;-60
2021/06/04 08:23:24;;;;;;;7.95;5.43;;;;;;;;;;5005101;28;20092;-60
2021/06/04 08:25:54;;;;;;;7.63;5.35;;;;;;;;;;5001751;28;20023;-60
2021/06/04 08:28:20;;;;;;;9.23;6.38;;;;;;;;;;5000019;28;20054;-60
2021/06/04 08:30:46;;;;;;;6.63;5.22;;;;;;;;;;5006593;28;20410;-60
2021/06/04 08:33:24;;;;;;;7.70;5.18;;;;;;;;;;5007289;28;20060;-59
2021/06/04 08:35:50;;;;;;;10.00;5.40;;;;;;;;;;5000912;28;20024;-59
2021/06/04 08:38:16;;;;;;;8.68;5.50;;;;;;;;;;5002838;28;20032;-60
2021/06/04 08:40:43;;;;;;;6.45;5.20;;;;;;;;;;5003821;28;20030;-59
2021/06/04 08:43:32;;;;;;;8.65;5.38;;;;;;;;;;5000548;28;20052;-60
2021/06/04 08:46:05;;;;;;;7.38;5.47;;;;;;;;;;5001458;28;20547;-60
2021/06/04 08:48:44;;;;;;;9.40;5.22;;;;;;;;;;5004104;28;20403;-60
2021/06/04 08:51:21;;;;;;;9.52;5.13;;;;;;;;;;5000408;28;20175;-60
2021/06/04 08:53:52;;;;;;;7.57;4.75;;;;;;;;;;5001643;28;20122;-61
2021/06/04 08:56:26;;;;;;;7.40;4.93;;;;;;;;;;5006695;28;20021;-60
2021/06/04 08:58:56;;;;;;;10.27;5.40;;;;;;;;;;5001373;28;20510;-61
2021/06/04 09:01:39;;;;;;;9.80;4.97;;;;;;;;;;5000548;28;20042;-60
2021/06/04 09:04:18;;;;;;;7.60;5.15;;;;;;;;;;5002242;28;20495;-61
2021/06/04 09:06:46;;;;;;;7.90;4.72;;;;;;;;;;4998496;28;20517;-61
2021/06/04 09:09:21;;;;;;;8.27;5.38;;;;;;;;;;4999274;28;20140;-60
2021/06/04 09:11:53;;;;;;;8.82;4.70;;;;;;;;;;5002309;28;20076;-61
2021/06/04 09:14:18;;;;;;;7.75;4.95;;;;;;;;;;5003923;28;20030;-61
2021/06/04 09:17:02;;;;;;;8.00;4.50;;;;;;;;;;4999659;28;20048;-61
2021/06/04 09:19:34;;;;;;;6.50;4.82;;;;;;;;;;4999965;28;20077;-60
2021/06/04 09:22:00;;;;;;;10.27;5.45;;;;;;;;;;5005604;28;20032;-59
2021/06/04 09:24:43;;;;;;;7.55;4.95;;;;;;;;;;5004687;28;20030;-60
2021/06/04 09:27:42;;;;;;;7.43;5.07;;;;;;;;;;5006343;28;20034;-59
2021/06/04 09:30:07;;;;;;;;;;;;;;;;;;4993769;28;20057;-60
2021/06/04 09:32:33;;;;;;;7.35;4.10;;;;;;;;;;4999659;28;20332;-60
2021/06/04 09:35:28;;;;;;;8.85;4.63;;;;;;;;;;4999082;28;20579;-60
2021/06/04 09:37:53;;;;;;;9.52;4.57;;;;;;;;;;4992607;28;20046;-60
2021/06/04 09:40:29;;;;;;;9.13;4.97;;;;;;;;;;5008053;28;20033;-61
2021/06/04 09:43:29;;;;;;;7.95;5.03;;;;;;;;;;4996991;28;20072;-60
2021/06/04 09:46:04;;;;;;;7.03;4.80;;;;;;;;;;5000399;28;20028;-60
2021/06/04 09:48:32;;;;;;;10.50;4.40;;;;;;;;;;5001429;28;20217;-60
2021/06/04 09:51:12;;;;;;;7.93;4.43;;;;;;;;;;5002432;28;20044;-60
2021/06/04 09:53:38;;;;;;;7.13;4.85;;;;;;;;;;5006802;28;20589;-60
2021/06/04 09:56:06;;;;;;;5.90;4.28;;;;;;;;;;5004563;28;20026;-60
2021/06/04 09:58:49;;;;;;;6.67;4.70;;;;;;;;;;4999464;28;20497;-60
2021/06/04 10:01:16;;;;;;;8.00;4.85;;;;;;;;;;5005209;28;20037;-60
2021/06/04 10:03:41;;;;;;;9.18;4.78;;;;;;;;;;4999807;28;20037;-60
2021/06/04 10:06:07;;;;;;;11.80;4.55;;;;;;;;;;5000583;28;20033;-61
2021/06/04 10:08:57;;;;;;;6.78;4.38;;;;;;;;;;4997883;28;20050;-60
2021/06/04 10:11:28;;;;;;;5.60;4.47;;;;;;;;;;5000916;28;20468;-62
2021/06/04 10:14:06;;;;;;;8.93;4.43;;;;;;;;;;5007295;28;20045;-61
2021/06/04 10:19:22;;;;;;;7.45;4.95;;;;;;;;;;5002495;28;20474;-61
2021/06/04 10:21:51;;;;;;;7.15;4.90;;;;;;;;;;5001223;28;20032;-61
2021/06/04 10:24:32;;;;;;;8.63;4.95;;;;;;;;;;4998085;28;20034;-61
2021/06/04 10:27:01;;;;;;;8.60;5.07;;;;;;;;;;5007306;28;20044;-61
2021/06/04 10:29:28;;;;;;;5.30;4.80;;;;;;;;;;5000661;28;20048;-61
2021/06/04 10:32:00;;;;;;;6.47;4.90;;;;;;;;;;5001626;28;20030;-61
2021/06/04 10:35:01;;;;;;;6.32;4.60;;;;;;;;;;5001197;28;20445;-60
2021/06/04 10:37:36;;;;;;;8.05;4.75;;;;;;;;;;5003054;28;20038;-61
2021/06/04 10:40:15;;;;;;;9.55;4.95;;;;;;;;;;5002859;28;20129;-61
2021/06/04 10:42:52;;;;;;;7.47;5.20;;;;;;;;;;4999806;28;20560;-61
2021/06/04 10:45:26;;;;;;;7.90;5.00;;;;;;;;;;5004101;28;20634;-62
2021/06/04 10:48:06;;;;;;;10.35;5.30;;;;;;;;;;5002064;28;20037;-60
2021/06/04 10:50:33;;;;;;;9.27;4.68;;;;;;;;;;5001052;28;20144;-61
2021/06/04 10:53:27;;;;;;;8.25;5.15;;;;;;;;;;5007916;28;20033;-60
2021/06/04 10:56:06;;;;;;;7.88;4.95;;;;;;;;;;5008054;28;20031;-60
2021/06/04 10:59:02;;;;;;;11.05;7.07;;;;;;;;;;5004336;28;20216;-60
2021/06/04 11:01:37;;;;;;;9.07;6.53;;;;;;;;;;5002390;28;20121;-61
2021/06/04 11:04:09;;;;;;;10.85;5.88;;;;;;;;;;5003462;28;20105;-60
2021/06/04 11:07:15;;;;;;;6.93;5.00;;;;;;;;;;5003539;28;20065;-60
2021/06/04 11:09:55;;;;;;;8.77;5.00;;;;;;;;;;5001309;28;20554;-60
2021/06/04 11:12:55;;;;;;;8.18;5.18;;;;;;;;;;5004166;28;20041;-60
2021/06/04 11:15:29;;;;;;;9.18;4.60;;;;;;;;;;5006178;28;20191;-61
2021/06/04 11:18:20;;;;;;;6.40;4.78;;;;;;;;;;5004993;28;20113;-59
2021/06/04 11:20:54;;;;;;;10.70;4.93;;;;;;;;;;5003533;28;20058;-60
2021/06/04 11:23:49;;;;;;;6.60;3.40;;;;;;;;;;5004340;28;20040;-60
2021/06/04 11:26:24;;;;;;;5.57;2.80;;;;;;;;;;5006368;28;20030;-62
2021/06/04 11:28:59;;;;;;;8.48;3.33;;;;;;;;;;5004209;28;20453;-60
2021/06/04 11:31:47;;;;;;;3.60;2.83;;;;;;;;;;5001516;28;20086;-60
2021/06/04 11:34:55;;;;;;;6.18;2.80;;;;;;;;;;5000069;28;20033;-60
2021/06/04 11:37:42;;;;;;;6.63;3.40;;;;;;;;;;5004841;28;20068;-60
2021/06/04 11:40:26;;;;;;;5.70;4.38;;;;;;;;;;5002353;28;20033;-60
2021/06/04 11:43:16;;;;;;;6.65;4.57;;;;;;;;;;5002467;28;20428;-60
2021/06/04 11:45:45;;;;;;;7.60;4.38;;;;;;;;;;5004120;28;20026;-61
2021/06/04 11:48:19;;;;;;;7.60;5.00;;;;;;;;;;5001699;28;20500;-60
2021/06/04 11:50:45;;;;;;;10.32;5.28;;;;;;;;;;5004353;28;20042;-60
2021/06/04 11:53:34;;;;;;;7.88;5.40;;;;;;;;;;5022009;28;20069;-61
2021/06/04 11:56:02;;;;;;;7.72;5.22;;;;;;;;;;5000756;28;20191;-60
2021/06/04 11:58:30;;;;;;;8.07;4.60;;;;;;;;;;5002865;28;20058;-61
2021/06/04 12:01:21;;;;;;;7.60;4.93;;;;;;;;;;5005982;28;20033;-61
2021/06/04 12:04:06;;;;;;;6.70;5.47;;;;;;;;;;5002876;28;20389;-62
2021/06/04 12:06:53;;;;;;;8.20;4.45;;;;;;;;;;5006692;28;20025;-61
2021/06/04 12:09:31;;;;;;;8.05;5.90;;;;;;;;;;5003717;28;20040;-61
2021/06/04 12:12:15;;;;;;;14.07;7.05;;;;;;;;;;5002743;28;20100;-61
2021/06/04 12:14:59;;;;;;;13.98;8.43;;;;;;;;;;5004432;28;20073;-61
2021/06/04 12:17:26;;;;;;;9.45;6.68;;;;;;;;;;5008843;28;20430;-61
2021/06/04 12:20:23;;;;;;;8.52;5.38;;;;;;;;;;5001173;28;20048;-61
2021/06/04 12:22:49;;;;;;;8.73;5.40;;;;;;;;;;5001239;28;20706;-61
2021/06/04 12:25:41;;;;;;;8.43;4.65;;;;;;;;;;5001648;28;20065;-61
2021/06/04 12:28:34;;;;;;;8.48;5.15;;;;;;;;;;5024235;28;20300;-61
2021/06/04 12:31:10;;;;;;;11.95;7.13;;;;;;;;;;4997778;28;20038;-61
2021/06/04 12:33:41;;;;;;;12.02;6.75;;;;;;;;;;5001974;28;20026;-60
2021/06/04 12:36:50;;;;;;;7.95;5.20;;;;;;;;;;5001682;28;20030;-60
2021/06/04 12:39:28;;;;;;;;;;;;;;;;;;5000069;28;20048;-61
2021/06/04 12:42:34;;;;;;;9.23;4.70;;;;;;;;;;5017691;28;20303;-60
2021/06/04 12:45:15;;;;;;;10.40;5.80;;;;;;;;;;5003412;28;20033;-61
2021/06/04 12:47:40;;;;;;;8.10;5.25;;;;;;;;;;4998408;28;20522;-60
2021/06/04 12:50:24;;;;;;;11.35;5.80;;;;;;;;;;4998124;28;20091;-61
2021/06/04 12:52:52;;;;;;;8.98;5.70;;;;;;;;;;5007906;28;20065;-62
2021/06/04 12:55:33;;;;;;;8.45;5.45;;;;;;;;;;4999156;28;20052;-62
2021/06/04 12:58:10;;;;;;;6.78;5.70;;;;;;;;;;5001083;28;20410;-61
2021/06/04 13:00:36;;;;;;;9.60;5.07;;;;;;;;;;5002690;28;20113;-61
2021/06/04 13:03:15;;;;;;;13.15;7.25;;;;;;;;;;5015194;28;20176;-61
2021/06/04 13:05:47;;;;;;;10.55;5.97;;;;;;;;;;5004688;28;20026;-61
2021/06/04 13:08:15;;;;;;;7.47;5.55;;;;;;;;;;5002225;28;20037;-61
2021/06/04 13:10:57;;;;;;;9.30;6.70;;;;;;;;;;5001364;28;20507;-61
2021/06/04 13:13:40;;;;;;;9.88;6.00;;;;;;;;;;5002446;28;20360;-61
2021/06/04 13:16:23;;;;;;;10.65;5.90;;;;;;;;;;5000815;28;20038;-61
2021/06/04 13:18:51;;;;;;;9.40;5.78;;;;;;;;;;5008406;28;20489;-61
2021/06/04 13:21:16;;;;;;;7.50;5.18;;;;;;;;;;4997186;28;20045;-61
2021/06/04 13:23:42;;;;;;;8.95;5.15;;;;;;;;;;5005226;28;20408;-61
2021/06/04 13:26:16;;;;;;;8.98;5.22;;;;;;;;;;5006478;28;20041;-60
2021/06/04 13:28:49;;;;;;;6.35;4.97;;;;;;;;;;5007462;28;20030;-60
2021/06/04 13:31:19;;;;;;;9.40;5.45;;;;;;;;;;4999514;28;20057;-60
2021/06/04 13:33:51;;;;;;;9.20;5.20;;;;;;;;;;5001890;28;20026;-61
2021/06/04 13:36:20;;;;;;;7.03;4.68;;;;;;;;;;5001607;28;20037;-61
2021/06/04 13:39:07;;;;;;;6.37;4.80;;;;;;;;;;4998007;28;20030;-60
2021/06/04 13:41:39;;;;;;;9.68;4.82;;;;;;;;;;5014818;28;20406;-61
2021/06/04 13:44:11;;;;;;;10.63;5.07;;;;;;;;;;5003829;28;20026;-60
2021/06/04 13:46:40;;;;;;;7.45;5.22;;;;;;;;;;4996464;28;20374;-60
2021/06/04 13:49:20;;;;;;;;;;;;;;;;;;5001479;28;20026;-60
2021/06/04 13:51:58;;;;;;;7.80;5.20;;;;;;;;;;5004131;28;19920;-61
2021/06/04 13:54:26;;;;;;;9.07;5.53;;;;;;;;;;4998859;28;20030;-62
2021/06/04 13:56:52;;;;;;;6.00;4.85;;;;;;;;;;5001467;28;20033;-62
2021/06/04 13:59:17;;;;;;;9.93;4.90;;;;;;;;;;5006216;28;20443;-62
2021/06/04 14:01:48;;;;;;;8.77;4.85;;;;;;;;;;4999642;28;20026;-61
2021/06/04 14:04:31;;;;;;;10.73;5.43;;;;;;;;;;4998780;28;20049;-62
2021/06/04 14:06:57;;;;;;;10.95;5.18;;;;;;;;;;5002131;28;20029;-62
2021/06/04 14:09:35;;;;;;;8.40;5.72;;;;;;;;;;5006309;28;20181;-61
2021/06/04 14:12:32;;;;;;;9.13;5.40;;;;;;;;;;4996454;28;20072;-62
2021/06/04 14:14:57;;;;;;;6.57;5.05;;;;;;;;;;4991199;28;20048;-62
2021/06/04 14:17:28;;;;;;;9.57;6.00;;;;;;;;;;5007147;28;20034;-62
2021/06/04 14:20:05;;;;;;;18.33;9.68;;;;;;;;;;5001104;28;20073;-61
2021/06/04 14:22:38;;;;;;;9.45;5.82;;;;;;;;;;5001429;28;20022;-62
2021/06/04 14:25:18;;;;;;;8.23;5.47;;;;;;;;;;5006012;28;20443;-61
2021/06/04 14:27:55;;;;;;;12.18;5.97;;;;;;;;;;5000858;28;20530;-62
2021/06/04 14:30:35;;;;;;;8.73;5.38;;;;;;;;;;5002347;28;20037;-61
2021/06/04 14:33:17;;;;;;;8.25;4.90;;;;;;;;;;5001153;28;20022;-61
2021/06/04 14:35:53;;;;;;;11.73;6.53;;;;;;;;;;5000555;28;20036;-61
2021/06/04 14:38:36;;;;;;;9.32;5.70;;;;;;;;;;4996129;28;20037;-62
2021/06/04 14:41:11;;;;;;;12.15;5.80;;;;;;;;;;4998439;28;20053;-62
2021/06/04 14:43:39;;;;;;;7.75;5.85;;;;;;;;;;4997442;28;20033;-61
2021/06/04 14:46:17;;;;;;;9.48;5.47;;;;;;;;;;5001841;28;20077;-62
2021/06/04 14:48:42;;;;;;;10.05;5.43;;;;;;;;;;5000891;28;20432;-61
2021/06/04 14:51:08;;;;;;;13.85;10.30;;;;;;;;;;5021252;28;20029;-61
2021/06/04 14:53:35;;;;;;;12.18;7.28;;;;;;;;;;4997071;28;20054;-62
2021/06/04 14:56:00;;;;;;;9.95;5.85;;;;;;;;;;5005230;28;20018;-61
2021/06/04 14:58:26;;;;;;;8.70;5.80;;;;;;;;;;5000737;28;20101;-61
2021/06/04 15:00:51;;;;;;;10.90;5.43;;;;;;;;;;4996453;28;20026;-61
2021/06/04 15:03:20;;;;;;;8.27;5.65;;;;;;;;;;4999723;28;20030;-61
2021/06/04 15:05:45;;;;;;;7.43;5.30;;;;;;;;;;4998105;28;20432;-61
2021/06/04 15:08:12;;;;;;;7.57;5.00;;;;;;;;;;4997299;28;20036;-61
2021/06/04 15:10:38;;;;;;;8.77;6.85;;;;;;;;;;5004250;28;20053;-61
2021/06/04 15:13:06;;;;;;;7.75;6.55;;;;;;;;;;5004049;28;20309;-61
2021/06/04 15:15:32;;;;;;;11.63;6.45;;;;;;;;;;4997777;28;20026;-61
2021/06/04 15:18:00;;;;;;;10.65;5.95;;;;;;;;;;5000651;28;20036;-61